Arzamas, Russia
Current Conditions -  °F | °C
As of 2:00 AM on Tuesday 21 Oct 2014 (Local Time) from UWGG Reporting Station
Light Snow Light Snow  
Wind Chill: 24°   Ceiling: 1400
Heat Index: 30°   Visibility: 6mi
Dew Point: 27°   Wind: 7mph
Humidity: 86%   Direction: 100°E
Pressure: 29.47"   Gusts: NA
Location:  55.38°N, 43.82°E
Report Text: UWGG 202300Z 10003MPS 9999 -SN OVC014 M01/M03 Q0998 NOSIG36190055 RMK QFE742
Loading
Personal Weather Stations






























Interactive Weather Map New forecast layout! Learn more

10-Day Weather Forecast

Advertisements
Track Severe Weather on mobile